Time;durP1;ratioP1;P1;durP2;ratioP2;P2;SDS_P1;SDS_P2;PMS_P1;PMS_P2;Temp;Humidity;BMP_temperature;BMP_pressure;BME280_temperature;BME280_humidity;BME280_pressure;Samples;Min_cycle;Max_cycle;Signal;HPM_P1;HPM_P2
2022/12/18 00:01:32;;;;;;;55.20;37.00;;;-7.10;99.90;;;;;;4967149;28;20027;-76
2022/12/18 00:03:59;;;;;;;49.63;37.20;;;-7.20;99.90;;;;;;4949767;29;20035;-76
2022/12/18 00:06:27;;;;;;;51.80;31.40;;;-7.30;99.90;;;;;;4950034;29;20067;-76
2022/12/18 00:08:54;;;;;;;53.20;33.63;;;-7.40;99.90;;;;;;4965815;29;20118;-76
2022/12/18 00:11:23;;;;;;;40.90;35.03;;;-7.30;99.90;;;;;;4965436;29;20063;-76
2022/12/18 00:13:50;;;;;;;46.23;35.37;;;-7.40;99.90;;;;;;4949780;29;20387;-76
2022/12/18 00:16:20;;;;;;;41.57;31.97;;;-7.40;99.90;;;;;;4966958;28;20051;-76
2022/12/18 00:18:47;;;;;;;45.03;35.30;;;-7.40;99.90;;;;;;4950396;29;20035;-76
2022/12/18 00:21:14;;;;;;;43.97;30.67;;;-7.40;99.90;;;;;;4949986;29;20043;-76
2022/12/18 00:23:43;;;;;;;49.23;32.50;;;-7.40;99.90;;;;;;4966982;28;20090;-76
2022/12/18 00:26:12;;;;;;;41.93;33.47;;;-7.30;99.90;;;;;;4949511;29;20040;-76
2022/12/18 00:28:39;;;;;;;44.80;34.80;;;-7.20;99.90;;;;;;4967050;28;20031;-76
2022/12/18 00:31:07;;;;;;;37.33;29.13;;;-7.20;99.90;;;;;;4969501;29;20126;-76
2022/12/18 00:33:34;;;;;;;48.33;34.50;;;-7.30;99.90;;;;;;4969402;29;20042;-76
2022/12/18 00:36:15;;;;;;;39.80;31.47;;;-7.30;99.90;;;;;;4970304;28;20031;-76
2022/12/18 00:38:42;;;;;;;44.53;32.93;;;-7.30;99.90;;;;;;4970524;28;20028;-76
2022/12/18 00:41:10;;;;;;;40.03;31.27;;;-7.20;99.90;;;;;;4970283;28;20035;-76
2022/12/18 00:43:36;;;;;;;40.73;30.90;;;-7.20;99.90;;;;;;4968830;29;20138;-76
2022/12/18 00:46:02;;;;;;;43.70;31.60;;;-7.30;99.90;;;;;;4953385;29;20118;-76
2022/12/18 00:48:29;;;;;;;42.70;30.27;;;-7.30;99.90;;;;;;4970087;29;20090;-76
2022/12/18 00:50:54;;;;;;;40.97;29.33;;;-7.30;99.90;;;;;;4968880;29;20027;-76
2022/12/18 00:53:20;;;;;;;43.67;31.63;;;-7.40;99.90;;;;;;4953045;29;20062;-76
2022/12/18 00:55:47;;;;;;;36.17;31.00;;;-7.30;99.90;;;;;;4968822;29;20066;-76
2022/12/18 00:58:14;;;;;;;33.13;29.17;;;-7.20;99.90;;;;;;4961424;29;20482;-76
2022/12/18 01:00:41;;;;;;;38.87;28.40;;;-7.30;99.90;;;;;;4968813;29;20027;-76
2022/12/18 01:03:12;;;;;;;;;;;-7.30;99.90;;;;;;4970562;28;20039;-76
2022/12/18 01:05:40;;;;;;;37.83;27.93;;;-7.30;99.90;;;;;;4969696;28;19922;-76
2022/12/18 01:08:06;;;;;;;40.70;28.87;;;-7.40;99.90;;;;;;4968611;29;20490;-76
2022/12/18 01:10:32;;;;;;;43.23;30.77;;;-7.30;99.90;;;;;;4969917;29;20031;-76
2022/12/18 01:12:58;;;;;;;41.47;30.90;;;-7.30;99.90;;;;;;4969333;29;20027;-76
2022/12/18 01:15:23;;;;;;;48.33;29.67;;;-7.50;99.90;;;;;;4952493;29;20027;-76
2022/12/18 01:17:52;;;;;;;39.23;28.97;;;-7.60;99.90;;;;;;4952603;29;20466;-77
2022/12/18 01:20:18;;;;;;;28.10;24.67;;;-7.60;99.90;;;;;;4968261;29;20118;-75
2022/12/18 01:22:44;;;;;;;34.50;29.10;;;-7.60;99.90;;;;;;4969752;29;20035;-75
2022/12/18 01:25:09;;;;;;;43.57;30.50;;;-7.60;99.90;;;;;;4968120;29;20581;-76
2022/12/18 01:27:35;;;;;;;34.03;26.23;;;-7.60;99.90;;;;;;4967998;29;20039;-75
2022/12/18 01:30:03;;;;;;;37.20;28.90;;;-7.50;99.90;;;;;;4969717;28;20020;-76
2022/12/18 01:32:30;;;;;;;35.50;29.33;;;-7.50;99.90;;;;;;4968396;29;20039;-75
2022/12/18 01:34:56;;;;;;;44.90;32.40;;;-7.20;99.90;;;;;;4968384;29;20039;-75
2022/12/18 01:37:22;;;;;;;37.77;29.23;;;-7.20;99.90;;;;;;4952341;29;20070;-75
2022/12/18 01:39:49;;;;;;;44.17;29.87;;;-7.30;99.90;;;;;;4967816;28;20039;-75
2022/12/18 01:42:16;;;;;;;31.77;26.00;;;-7.30;99.90;;;;;;4967953;29;20023;-76
2022/12/18 01:44:57;;;;;;;36.20;28.83;;;-7.30;99.90;;;;;;4968195;29;20082;-75
2022/12/18 01:47:26;;;;;;;42.67;31.30;;;-7.00;99.90;;;;;;4968164;29;20031;-75
2022/12/18 01:49:53;;;;;;;36.77;30.20;;;-7.00;99.90;;;;;;4968070;29;20023;-75
2022/12/18 01:52:20;;;;;;;37.80;28.27;;;-7.00;99.90;;;;;;4968034;29;20031;-75
2022/12/18 01:54:48;;;;;;;40.37;30.07;;;-7.10;99.90;;;;;;4969167;28;20051;-75
2022/12/18 01:57:14;;;;;;;32.97;29.60;;;-7.10;99.90;;;;;;4966401;28;20035;-75
2022/12/18 01:59:43;;;;;;;29.23;24.63;;;-7.20;99.90;;;;;;4958704;29;20030;-75
2022/12/18 02:02:09;;;;;;;38.73;25.70;;;-7.30;99.90;;;;;;4967970;29;20046;-75
2022/12/18 02:04:35;;;;;;;31.57;27.07;;;-7.20;99.90;;;;;;4967599;29;20494;-75
2022/12/18 02:07:08;;;;;;;39.33;28.60;;;-7.20;99.90;;;;;;4967704;29;20062;-75
2022/12/18 02:09:48;;;;;;;34.83;24.53;;;-7.20;99.90;;;;;;4968851;29;20051;-75
2022/12/18 02:12:22;;;;;;;27.33;24.47;;;-7.20;99.90;;;;;;4967639;29;20027;-75
2022/12/18 02:15:20;;;;;;;27.73;23.80;;;-7.30;99.90;;;;;;4964382;29;20459;-75
2022/12/18 02:17:58;;;;;;;34.40;25.57;;;-7.50;99.90;;;;;;4949442;29;20036;-75
2022/12/18 02:20:57;;;;;;;30.13;24.43;;;-7.50;99.90;;;;;;4948388;29;20042;-76
2022/12/18 02:23:44;;;;;;;27.88;24.00;;;-7.40;99.90;;;;;;4948140;29;20099;-75
2022/12/18 02:26:16;;;;;;;35.50;24.40;;;-7.30;99.90;;;;;;4948019;29;20104;-75
2022/12/18 02:28:55;;;;;;;30.97;25.00;;;-7.30;99.90;;;;;;4954430;29;20051;-75
2022/12/18 02:31:27;;;;;;;30.17;24.73;;;-7.50;99.90;;;;;;4967483;29;20027;-75
2022/12/18 02:33:56;;;;;;;30.10;25.07;;;-7.50;99.90;;;;;;4968612;28;20038;-75
2022/12/18 02:36:23;;;;;;;25.10;21.88;;;-7.60;99.90;;;;;;4966888;29;20031;-75
2022/12/18 02:38:51;;;;;;;26.27;23.07;;;-7.60;99.90;;;;;;4966994;29;20030;-75
2022/12/18 02:41:18;;;;;;;27.70;24.83;;;-7.60;99.90;;;;;;4966920;29;20060;-75
2022/12/18 02:43:49;;;;;;;29.67;22.13;;;-7.70;99.90;;;;;;4966970;29;20032;-75
2022/12/18 02:46:32;;;;;;;41.07;25.87;;;-7.70;99.90;;;;;;4967099;29;20023;-76
2022/12/18 02:49:30;;;;;;;31.47;23.00;;;-7.60;99.90;;;;;;4966843;29;20038;-76
2022/12/18 02:52:13;;;;;;;27.90;21.83;;;-7.50;99.90;;;;;;4962530;28;20035;-75
2022/12/18 02:54:44;;;;;;;31.80;22.80;;;-7.50;99.90;;;;;;4966753;29;20036;-75
2022/12/18 02:57:24;;;;;;;26.67;21.23;;;-7.50;99.90;;;;;;4966736;29;20039;-75
2022/12/18 02:59:57;;;;;;;;;;;-7.50;99.90;;;;;;4968585;29;20027;-75
2022/12/18 03:02:38;;;;;;;27.47;24.23;;;-7.50;99.90;;;;;;4966978;29;19965;-75
2022/12/18 03:05:09;;;;;;;35.67;24.83;;;-7.40;99.90;;;;;;4966803;29;20047;-75
2022/12/18 03:07:41;;;;;;;31.70;24.60;;;-7.40;99.90;;;;;;4966275;29;20039;-75
2022/12/18 03:10:13;;;;;;;33.20;23.73;;;-7.40;99.90;;;;;;4966595;29;20055;-75
2022/12/18 03:12:44;;;;;;;32.30;24.93;;;-7.40;99.90;;;;;;4966702;29;20031;-76
2022/12/18 03:15:19;;;;;;;30.73;25.93;;;-7.40;99.90;;;;;;4966721;29;20419;-75
2022/12/18 03:17:56;;;;;;;30.17;22.87;;;-7.40;99.90;;;;;;4951021;29;20039;-76
2022/12/18 03:20:26;;;;;;;32.70;22.97;;;-7.40;99.90;;;;;;4966311;29;20482;-75
2022/12/18 03:23:00;;;;;;;27.70;23.00;;;-7.40;99.90;;;;;;4967381;29;20063;-75
2022/12/18 03:25:28;;;;;;;27.77;21.73;;;-7.50;99.90;;;;;;4967956;29;20059;-75
2022/12/18 03:27:58;;;;;;;25.33;20.93;;;-7.60;99.90;;;;;;4966376;29;20031;-75
2022/12/18 03:30:26;;;;;;;28.07;22.07;;;-7.50;99.90;;;;;;4966504;29;20035;-75
2022/12/18 03:33:05;;;;;;;28.93;21.60;;;-7.60;99.90;;;;;;4966430;29;20125;-75
2022/12/18 03:35:36;;;;;;;28.30;20.98;;;-7.70;99.90;;;;;;4966501;29;20383;-75
2022/12/18 03:38:03;;;;;;;23.47;20.97;;;-7.80;99.90;;;;;;4967315;28;20031;-75
2022/12/18 03:40:43;;;;;;;27.80;23.00;;;-7.80;99.90;;;;;;4966335;29;20087;-75
2022/12/18 03:43:14;;;;;;;;;;;-7.90;99.90;;;;;;4966772;29;20032;-75
2022/12/18 03:45:53;;;;;;;25.77;19.87;;;-7.90;99.90;;;;;;4982726;28;19911;-75
2022/12/18 03:48:31;;;;;;;24.37;21.20;;;-7.90;99.90;;;;;;4966454;29;20463;-75
2022/12/18 03:51:08;;;;;;;31.50;22.30;;;-7.80;99.90;;;;;;4950767;29;20023;-75
2022/12/18 03:53:41;;;;;;;23.97;21.57;;;-7.80;99.90;;;;;;4950324;29;20034;-75
2022/12/18 03:56:09;;;;;;;25.87;19.17;;;-8.00;99.90;;;;;;4966110;29;20051;-75
2022/12/18 03:58:41;;;;;;;29.70;21.40;;;-8.10;99.90;;;;;;4963060;29;20051;-75
2022/12/18 04:01:17;;;;;;;34.73;21.63;;;-8.00;99.90;;;;;;4963022;29;20091;-75
2022/12/18 04:03:46;;;;;;;26.93;20.73;;;-8.00;99.90;;;;;;4965032;28;20050;-75
2022/12/18 04:06:14;;;;;;;25.20;20.48;;;-8.00;99.90;;;;;;4950667;29;20051;-75
2022/12/18 04:08:42;;;;;;;28.83;22.15;;;-7.90;99.90;;;;;;4965991;29;20031;-75
2022/12/18 04:11:10;;;;;;;23.75;21.20;;;-7.90;99.90;;;;;;4970032;29;20035;-75
2022/12/18 04:13:38;;;;;;;27.03;20.30;;;-7.90;99.90;;;;;;4969834;29;20027;-76
2022/12/18 04:16:09;;;;;;;27.57;18.87;;;-7.90;99.90;;;;;;4969713;29;20055;-75
2022/12/18 04:18:39;;;;;;;24.07;20.97;;;-7.80;99.90;;;;;;4954681;29;20052;-75
2022/12/18 04:21:05;;;;;;;25.73;19.53;;;-7.80;99.90;;;;;;4969340;29;20035;-75
2022/12/18 04:23:32;;;;;;;24.60;20.27;;;-7.70;99.90;;;;;;4965914;29;20019;-75
2022/12/18 04:25:58;;;;;;;26.33;20.80;;;-7.70;99.90;;;;;;4950533;29;20047;-75
2022/12/18 04:28:53;;;;;;;24.30;20.33;;;-7.50;99.90;;;;;;4942689;29;20044;-75
2022/12/18 04:31:19;;;;;;;30.47;22.23;;;-7.50;99.90;;;;;;4951380;29;20054;-75
2022/12/18 04:33:44;;;;;;;26.57;22.10;;;-7.40;99.90;;;;;;4950158;29;20087;-75
2022/12/18 04:36:12;;;;;;;35.57;21.37;;;-7.40;99.90;;;;;;4950100;29;20032;-75
2022/12/18 04:38:38;;;;;;;33.00;22.47;;;-7.40;99.90;;;;;;4955591;29;20036;-75
2022/12/18 04:41:08;;;;;;;25.40;20.85;;;-7.60;99.90;;;;;;4969218;29;20082;-75
2022/12/18 04:43:34;;;;;;;26.97;20.97;;;-7.50;99.90;;;;;;4969314;29;20099;-75
2022/12/18 04:46:07;;;;;;;27.13;21.40;;;-7.30;99.90;;;;;;4969534;29;20042;-75
2022/12/18 04:48:34;;;;;;;24.03;21.63;;;-7.30;99.90;;;;;;4953057;29;20215;-75
2022/12/18 04:51:02;;;;;;;22.83;20.03;;;-7.30;99.90;;;;;;4953159;29;20091;-75
2022/12/18 04:53:27;;;;;;;24.70;21.37;;;-7.30;99.90;;;;;;4970036;28;20029;-76
2022/12/18 04:56:08;;;;;;;24.30;19.30;;;-7.30;99.90;;;;;;4965574;29;20032;-75
2022/12/18 04:58:34;;;;;;;23.30;18.37;;;-7.40;99.90;;;;;;4957560;29;20042;-75
2022/12/18 05:01:01;;;;;;;25.63;20.73;;;-7.40;99.90;;;;;;4968898;29;20083;-75
2022/12/18 05:03:29;;;;;;;26.03;20.70;;;-7.50;99.90;;;;;;4969997;29;20115;-76
2022/12/18 05:05:55;;;;;;;27.17;20.40;;;-7.60;99.90;;;;;;4968653;29;20058;-75
2022/12/18 05:08:21;;;;;;;27.00;22.73;;;-7.60;99.90;;;;;;4970036;29;20039;-75
2022/12/18 05:10:47;;;;;;;26.63;19.57;;;-7.50;99.90;;;;;;4968541;29;20031;-75
2022/12/18 05:13:13;;;;;;;25.37;19.77;;;-7.70;99.90;;;;;;4969877;29;20501;-75
2022/12/18 05:15:39;;;;;;;21.50;18.97;;;-7.70;99.90;;;;;;4967622;28;20032;-75
2022/12/18 05:18:05;;;;;;;21.97;19.83;;;-7.80;99.90;;;;;;4969868;29;20059;-75
2022/12/18 05:20:31;;;;;;;19.30;17.30;;;-7.80;99.90;;;;;;4969841;28;20108;-75
2022/12/18 05:22:57;;;;;;;22.37;18.40;;;-7.70;99.90;;;;;;4969669;29;20038;-75
2022/12/18 05:25:23;;;;;;;26.77;22.17;;;-7.60;99.90;;;;;;4968802;28;20023;-75
2022/12/18 05:27:49;;;;;;;29.07;20.30;;;-7.40;99.90;;;;;;4968871;28;20494;-75
2022/12/18 05:30:15;;;;;;;27.73;21.10;;;-7.60;99.90;;;;;;4969606;29;20530;-75
2022/12/18 05:32:41;;;;;;;22.90;18.33;;;-7.60;99.90;;;;;;4969592;28;20134;-74
2022/12/18 05:35:09;;;;;;;22.50;18.30;;;-7.70;99.90;;;;;;4969430;29;20050;-75
2022/12/18 05:37:35;;;;;;;19.17;17.33;;;-7.70;99.90;;;;;;4968320;29;20094;-75
2022/12/18 05:40:03;;;;;;;25.83;20.37;;;-7.80;99.90;;;;;;4969424;28;20046;-75
2022/12/18 05:42:30;;;;;;;20.73;18.03;;;-7.80;99.90;;;;;;4969123;28;20027;-75
2022/12/18 05:44:56;;;;;;;24.60;18.07;;;-7.70;99.90;;;;;;4964527;29;20067;-75
2022/12/18 05:47:22;;;;;;;29.97;21.93;;;-7.80;99.90;;;;;;4965494;29;20111;-75
2022/12/18 05:49:47;;;;;;;25.57;19.77;;;-7.80;99.90;;;;;;4967426;29;20043;-75
2022/12/18 05:52:13;;;;;;;20.60;18.40;;;-7.90;99.90;;;;;;4968282;29;20057;-75
2022/12/18 05:54:39;;;;;;;23.37;20.83;;;-7.90;99.90;;;;;;4963494;28;20039;-74
2022/12/18 05:57:05;;;;;;;25.30;21.40;;;-7.90;99.90;;;;;;4966613;28;20038;-76
2022/12/18 05:59:31;;;;;;;25.97;21.70;;;-7.80;99.90;;;;;;4967101;29;20047;-75
2022/12/18 06:01:57;;;;;;;29.77;22.00;;;-7.80;99.90;;;;;;4983470;28;20027;-75
2022/12/18 06:04:23;;;;;;;27.23;20.03;;;-7.80;99.90;;;;;;4983373;28;20051;-75
2022/12/18 06:06:49;;;;;;;27.60;21.20;;;-7.60;99.90;;;;;;4951563;29;20035;-75
2022/12/18 06:09:14;;;;;;;31.00;23.30;;;-7.40;99.90;;;;;;4983669;28;20045;-74
2022/12/18 06:11:40;;;;;;;24.83;20.47;;;-7.40;99.90;;;;;;4951434;29;20513;-75
2022/12/18 06:14:06;;;;;;;27.27;20.60;;;-7.40;99.90;;;;;;4983352;28;20039;-75
2022/12/18 06:16:32;;;;;;;22.13;19.63;;;-7.40;99.90;;;;;;4967049;28;20036;-75
2022/12/18 06:18:59;;;;;;;24.47;20.37;;;-7.30;99.90;;;;;;4967039;29;20031;-75
2022/12/18 06:21:27;;;;;;;21.57;19.40;;;-7.30;99.90;;;;;;4951625;29;20041;-75
2022/12/18 06:23:52;;;;;;;22.53;19.23;;;-7.40;99.90;;;;;;4983186;28;20103;-75
2022/12/18 06:26:19;;;;;;;28.30;19.73;;;-7.50;99.90;;;;;;4966960;28;20035;-75
2022/12/18 06:28:45;;;;;;;24.70;20.67;;;-7.50;99.90;;;;;;4983034;28;20023;-75
2022/12/18 06:31:11;;;;;;;24.63;19.17;;;-7.60;99.90;;;;;;4968007;29;20086;-75
2022/12/18 06:33:38;;;;;;;21.83;19.47;;;-7.70;99.90;;;;;;4966825;28;20027;-75
2022/12/18 06:36:06;;;;;;;35.03;18.83;;;-7.80;99.90;;;;;;4966022;29;20034;-75
2022/12/18 06:38:33;;;;;;;29.13;19.77;;;-7.80;99.90;;;;;;4968213;29;20038;-76
2022/12/18 06:40:59;;;;;;;23.07;18.03;;;-7.80;99.90;;;;;;4965973;29;20051;-74
2022/12/18 06:43:28;;;;;;;23.27;18.13;;;-7.80;99.90;;;;;;4966914;29;20039;-74
2022/12/18 06:46:01;;;;;;;24.40;20.50;;;-7.70;99.90;;;;;;4965077;29;20462;-74
2022/12/18 06:48:27;;;;;;;26.13;20.37;;;-7.70;99.90;;;;;;4954000;29;20091;-75
2022/12/18 06:50:53;;;;;;;31.90;23.50;;;-7.70;99.90;;;;;;4966808;29;20038;-74
2022/12/18 06:53:18;;;;;;;27.80;21.80;;;-7.70;99.90;;;;;;4982955;28;20106;-74
2022/12/18 06:55:44;;;;;;;24.60;20.50;;;-7.70;99.90;;;;;;4982845;28;20042;-74
2022/12/18 06:58:10;;;;;;;27.60;20.77;;;-7.70;99.90;;;;;;4966626;29;20039;-74
2022/12/18 07:00:36;;;;;;;27.00;21.37;;;-7.80;99.90;;;;;;4967644;28;20135;-74
2022/12/18 07:03:02;;;;;;;26.17;21.17;;;-7.60;99.90;;;;;;4982842;28;20031;-75
2022/12/18 07:05:28;;;;;;;24.03;21.30;;;-7.60;99.90;;;;;;4982014;28;20050;-74
2022/12/18 07:07:54;;;;;;;23.67;21.23;;;-7.60;99.90;;;;;;4967841;28;20058;-74
2022/12/18 07:10:19;;;;;;;23.80;19.37;;;-7.50;99.90;;;;;;4966524;29;20046;-74
2022/12/18 07:12:46;;;;;;;29.80;21.13;;;-7.60;99.90;;;;;;4967835;29;20039;-74
2022/12/18 07:15:12;;;;;;;30.60;21.80;;;-7.40;99.90;;;;;;4966532;29;20047;-74
2022/12/18 07:17:38;;;;;;;23.70;19.40;;;-7.30;99.90;;;;;;4965976;29;20087;-74
2022/12/18 07:20:04;;;;;;;33.27;23.33;;;-7.30;99.90;;;;;;4966610;29;20054;-74
2022/12/18 07:22:30;;;;;;;23.47;20.83;;;-7.20;99.90;;;;;;4950194;29;20094;-75
2022/12/18 07:24:56;;;;;;;23.13;20.57;;;-7.30;99.90;;;;;;4967485;29;20058;-74
2022/12/18 07:27:22;;;;;;;23.00;20.50;;;-7.40;99.90;;;;;;4967594;29;20059;-74
2022/12/18 07:29:48;;;;;;;23.10;20.90;;;-7.30;99.90;;;;;;4967551;28;20043;-74
2022/12/18 07:32:14;;;;;;;28.33;22.90;;;-7.20;99.90;;;;;;4981971;28;20027;-74
2022/12/18 07:34:40;;;;;;;26.60;24.03;;;-7.20;99.90;;;;;;4962903;29;20028;-74
2022/12/18 07:37:06;;;;;;;26.77;21.47;;;-7.10;99.90;;;;;;4964324;28;20402;-74
2022/12/18 07:39:31;;;;;;;33.90;22.80;;;-7.10;99.90;;;;;;4967107;29;20054;-74
2022/12/18 07:44:42;;;;;;;28.73;23.07;;;-7.10;99.90;;;;;;4966123;29;20036;-74
2022/12/18 07:47:08;;;;;;;25.47;22.07;;;-7.00;99.90;;;;;;4946392;29;20042;-74
2022/12/18 07:49:34;;;;;;;26.37;20.50;;;-7.00;99.90;;;;;;4959949;29;20079;-74
2022/12/18 07:52:01;;;;;;;30.27;23.37;;;-7.00;99.90;;;;;;4967371;28;20110;-74
2022/12/18 07:54:27;;;;;;;30.87;24.20;;;-6.90;99.90;;;;;;4966814;28;20031;-74
2022/12/18 07:56:53;;;;;;;29.10;24.23;;;-6.70;99.90;;;;;;4981727;28;20039;-74
2022/12/18 07:59:19;;;;;;;32.40;25.57;;;-6.60;99.90;;;;;;4967407;28;20063;-75
2022/12/18 08:01:44;;;;;;;28.57;23.67;;;-6.60;99.90;;;;;;4965466;29;20039;-74
2022/12/18 08:04:10;;;;;;;24.93;22.37;;;-6.40;99.90;;;;;;4966384;29;20057;-74
2022/12/18 08:06:36;;;;;;;33.50;25.27;;;-6.30;99.90;;;;;;4966916;29;20530;-75
2022/12/18 08:09:02;;;;;;;28.83;24.85;;;-6.30;99.90;;;;;;4967075;28;20039;-74
2022/12/18 08:11:28;;;;;;;30.95;24.10;;;-6.20;99.90;;;;;;4965688;29;20046;-74
2022/12/18 08:13:55;;;;;;;25.75;22.63;;;-6.20;99.90;;;;;;4949849;29;20049;-74
2022/12/18 08:16:23;;;;;;;30.13;24.55;;;-6.00;99.90;;;;;;4963409;28;20040;-74
2022/12/18 08:18:49;;;;;;;28.60;23.93;;;-5.90;99.90;;;;;;4961088;28;20035;-74
2022/12/18 08:21:18;;;;;;;29.23;25.63;;;-5.80;99.90;;;;;;4954373;29;20035;-74
2022/12/18 08:23:44;;;;;;;32.33;25.45;;;-5.80;99.90;;;;;;4959274;29;20091;-74
2022/12/18 08:26:11;;;;;;;28.95;22.10;;;-5.70;99.90;;;;;;4949920;29;20039;-74
2022/12/18 08:28:37;;;;;;;27.73;23.80;;;-5.60;99.90;;;;;;4961661;28;20020;-74
2022/12/18 08:31:03;;;;;;;33.67;26.10;;;-5.50;99.90;;;;;;4949333;28;20035;-74
2022/12/18 08:33:29;;;;;;;28.98;24.38;;;-5.30;99.90;;;;;;4956075;29;20039;-74
2022/12/18 08:35:55;;;;;;;29.90;22.08;;;-5.10;99.90;;;;;;4965534;29;20112;-75
2022/12/18 08:38:21;;;;;;;27.02;22.92;;;-4.90;99.90;;;;;;4965296;28;20035;-74
2022/12/18 08:40:46;;;;;;;36.28;24.60;;;-4.80;99.90;;;;;;4971701;28;20031;-74
2022/12/18 08:45:57;;;;;;;30.10;24.52;;;-3.60;99.90;;;;;;4965057;28;20066;-74
2022/12/18 08:48:22;;;;;;;25.35;22.75;;;-3.70;99.90;;;;;;4961817;29;20031;-74
2022/12/18 08:50:56;;;;;;;28.83;21.67;;;-3.30;99.90;;;;;;4967063;28;20046;-74
2022/12/18 08:53:22;;;;;;;20.77;18.73;;;-3.10;99.90;;;;;;4970181;29;20043;-75
2022/12/18 08:55:48;;;;;;;29.50;21.98;;;-3.10;99.90;;;;;;4968845;29;20039;-74
2022/12/18 08:58:13;;;;;;;24.08;21.45;;;-2.50;99.90;;;;;;4985306;28;20533;-74
2022/12/18 09:00:43;;;;;;;25.40;21.83;;;-2.20;99.90;;;;;;4969170;29;20031;-75
2022/12/18 09:03:18;;;;;;;27.67;20.92;;;-2.40;99.90;;;;;;4952612;29;20066;-74
2022/12/18 09:06:17;;;;;;;22.02;18.65;;;-2.40;99.90;;;;;;4969425;29;20131;-74
2022/12/18 09:08:44;;;;;;;23.23;18.77;;;-2.30;99.90;;;;;;4968951;29;20034;-74
2022/12/18 09:11:14;;;;;;;21.33;18.95;;;-2.30;99.90;;;;;;4969034;29;20054;-74
2022/12/18 09:13:40;;;;;;;22.27;19.40;;;-2.40;99.90;;;;;;4970193;28;20028;-75
2022/12/18 09:16:06;;;;;;;19.55;17.55;;;-2.50;99.90;;;;;;4984954;28;20066;-74
2022/12/18 09:18:32;;;;;;;28.60;19.20;;;-2.70;99.90;;;;;;4968543;29;20028;-74
2022/12/18 09:20:57;;;;;;;23.75;19.38;;;-2.90;99.90;;;;;;4968893;29;20037;-74
2022/12/18 09:23:23;;;;;;;20.90;18.52;;;-3.00;99.90;;;;;;4968762;29;20116;-74
2022/12/18 09:25:49;;;;;;;21.52;19.23;;;-2.80;99.90;;;;;;4968477;29;20027;-74
2022/12/18 09:28:17;;;;;;;27.55;17.73;;;-2.60;99.90;;;;;;4984958;28;20036;-74
2022/12/18 09:30:47;;;;;;;25.00;19.88;;;-2.70;99.90;;;;;;4968607;29;20035;-74
2022/12/18 09:33:13;;;;;;;24.75;21.08;;;-2.60;99.90;;;;;;4968665;28;20031;-75
2022/12/18 09:35:40;;;;;;;23.98;19.88;;;-2.30;99.90;;;;;;4984823;28;20032;-75
2022/12/18 09:38:08;;;;;;;23.60;19.23;;;-2.30;99.90;;;;;;4969577;28;20039;-74
2022/12/18 09:40:43;;;;;;;25.65;19.50;;;-2.10;99.90;;;;;;4969329;28;20031;-74
2022/12/18 09:43:19;;;;;;;25.75;22.38;;;-2.20;99.90;;;;;;4969815;28;20054;-75
2022/12/18 09:46:07;;;;;;;23.25;17.20;;;-2.10;99.90;;;;;;4969823;28;20027;-74
2022/12/18 09:48:42;;;;;;;27.73;18.38;;;-1.80;99.90;;;;;;4968035;29;20035;-74
2022/12/18 09:51:19;;;;;;;27.95;20.52;;;-1.60;99.90;;;;;;4969477;28;20027;-75
2022/12/18 09:53:51;;;;;;;22.55;20.20;;;-1.20;99.90;;;;;;4969118;28;20027;-75
2022/12/18 09:56:22;;;;;;;24.50;19.52;;;-1.10;99.90;;;;;;4969428;28;20034;-75
2022/12/18 09:59:02;;;;;;;22.20;19.90;;;-0.90;99.90;;;;;;4984132;28;20046;-75
2022/12/18 10:01:29;;;;;;;22.20;19.73;;;-0.90;99.90;;;;;;4967521;28;20059;-75
2022/12/18 10:03:55;;;;;;;22.75;18.50;;;-1.00;99.90;;;;;;4969287;28;20090;-75
2022/12/18 10:06:41;;;;;;;20.70;18.35;;;-1.00;99.90;;;;;;4967622;29;20411;-74
2022/12/18 10:09:21;;;;;;;22.98;18.85;;;-1.40;99.90;;;;;;4967845;29;20074;-74
2022/12/18 10:12:03;;;;;;;24.40;17.67;;;-1.40;99.90;;;;;;4951840;29;20031;-75
2022/12/18 10:14:51;;;;;;;21.42;18.20;;;-1.60;99.90;;;;;;4968959;28;20032;-74
2022/12/18 10:18:10;;;;;;;21.92;18.13;;;-1.50;99.90;;;;;;4967670;29;20042;-74
2022/12/18 10:20:44;;;;;;;27.13;18.25;;;-1.50;99.90;;;;;;4906336;29;20037;-75
2022/12/18 10:23:34;;;;;;;24.90;19.80;;;-1.60;99.90;;;;;;4904823;29;20028;-75
2022/12/18 10:26:03;;;;;;;18.38;14.85;;;-1.60;99.90;;;;;;4932667;29;20055;-75
2022/12/18 10:28:31;;;;;;;31.58;21.05;;;-1.60;99.90;;;;;;4948323;29;20024;-75
2022/12/18 10:30:58;;;;;;;26.15;19.63;;;-1.70;99.90;;;;;;4948173;29;20035;-75
2022/12/18 10:33:28;;;;;;;25.15;19.25;;;-1.60;99.90;;;;;;4932791;29;20047;-75
2022/12/18 10:35:54;;;;;;;22.90;18.70;;;-1.60;99.90;;;;;;4964302;29;20489;-75
2022/12/18 10:38:23;;;;;;;21.58;19.33;;;-1.70;99.90;;;;;;4949401;29;20175;-74
2022/12/18 10:40:59;;;;;;;24.03;17.83;;;-1.70;99.90;;;;;;4967516;29;20034;-75
2022/12/18 10:43:28;;;;;;;19.75;17.92;;;-1.60;99.90;;;;;;4968582;28;20034;-75
2022/12/18 10:46:08;;;;;;;21.73;17.88;;;-1.70;99.90;;;;;;4968408;28;20027;-75
2022/12/18 10:48:55;;;;;;;23.58;20.42;;;-1.70;99.90;;;;;;4963715;29;20035;-75
2022/12/18 10:51:27;;;;;;;22.77;18.52;;;-1.70;99.90;;;;;;4947926;29;20388;-75
2022/12/18 10:54:15;;;;;;;24.13;20.33;;;-1.70;99.90;;;;;;4948076;29;20032;-74
2022/12/18 10:56:41;;;;;;;22.25;19.85;;;-1.80;99.90;;;;;;4949060;29;20036;-75
2022/12/18 10:59:13;;;;;;;24.15;20.17;;;-1.60;99.90;;;;;;4916342;29;20372;-75
2022/12/18 11:01:52;;;;;;;22.88;20.27;;;-1.60;99.90;;;;;;4948980;29;20053;-75
2022/12/18 11:04:21;;;;;;;22.33;19.97;;;-1.70;99.90;;;;;;4966025;29;20124;-75
2022/12/18 11:07:13;;;;;;;23.40;17.67;;;-1.60;99.90;;;;;;4968227;28;20293;-75
2022/12/18 11:09:40;;;;;;;27.90;19.50;;;-1.70;99.90;;;;;;4966973;28;20286;-75
2022/12/18 11:12:10;;;;;;;18.25;16.38;;;-1.70;99.90;;;;;;4966589;28;20043;-75
2022/12/18 11:14:56;;;;;;;24.95;21.33;;;-1.80;99.90;;;;;;4966618;29;20498;-75
2022/12/18 11:17:25;;;;;;;26.80;18.92;;;-1.80;99.90;;;;;;4966271;29;20103;-75
2022/12/18 11:19:59;;;;;;;23.80;19.70;;;-1.70;99.90;;;;;;4966719;28;20019;-75
2022/12/18 11:22:33;;;;;;;23.38;19.35;;;-1.70;99.90;;;;;;4950581;29;20023;-75
2022/12/18 11:25:05;;;;;;;33.97;21.13;;;-1.80;99.90;;;;;;4966817;29;20386;-75
2022/12/18 11:27:31;;;;;;;22.40;18.33;;;-1.20;99.90;;;;;;4968128;28;20039;-75
2022/12/18 11:30:26;;;;;;;27.17;20.88;;;-1.60;99.90;;;;;;4967868;29;20541;-75
2022/12/18 11:33:13;;;;;;;21.13;18.30;;;-1.50;99.90;;;;;;4965942;29;20045;-75
2022/12/18 11:35:44;;;;;;;24.75;18.58;;;-1.40;99.90;;;;;;4947074;29;20035;-75
2022/12/18 11:38:43;;;;;;;20.10;17.60;;;-1.40;99.90;;;;;;4947232;29;20039;-75
2022/12/18 11:44:36;;;;;;;27.53;20.50;;;-1.30;99.90;;;;;;4948467;29;20032;-75
2022/12/18 11:47:19;;;;;;;21.63;18.48;;;-1.40;99.90;;;;;;4948552;29;20755;-75
2022/12/18 11:49:49;;;;;;;22.13;17.17;;;-1.30;99.90;;;;;;4947287;29;20038;-75
2022/12/18 11:52:24;;;;;;;21.05;18.77;;;-1.40;99.90;;;;;;4967233;29;20023;-75
2022/12/18 11:55:00;;;;;;;27.17;19.08;;;-1.20;99.90;;;;;;4967575;28;20114;-75
2022/12/18 11:57:59;;;;;;;25.70;19.58;;;-1.30;99.90;;;;;;4967276;28;20027;-75
2022/12/18 12:00:26;;;;;;;23.30;20.50;;;-1.20;99.90;;;;;;4959167;28;20035;-75
2022/12/18 12:03:13;;;;;;;24.33;19.23;;;-1.10;99.90;;;;;;4966108;29;20019;-75
2022/12/18 12:05:54;;;;;;;24.40;20.23;;;-1.10;99.90;;;;;;4950005;29;20548;-75
2022/12/18 12:08:34;;;;;;;25.88;20.58;;;-1.10;99.90;;;;;;4959599;29;20043;-75
2022/12/18 12:11:39;;;;;;;29.27;22.42;;;-0.90;99.90;;;;;;4963041;29;20038;-75
2022/12/18 12:14:20;;;;;;;24.63;17.40;;;-0.90;99.90;;;;;;4962384;29;20055;-75
2022/12/18 12:17:21;;;;;;;20.98;17.90;;;-0.80;99.90;;;;;;4950208;29;20040;-75
2022/12/18 12:20:26;;;;;;;19.48;17.40;;;-0.80;99.90;;;;;;4967379;28;20035;-75
2022/12/18 12:23:05;;;;;;;21.38;19.25;;;-0.90;99.90;;;;;;4963684;29;20055;-75
2022/12/18 12:25:44;;;;;;;20.20;18.17;;;-0.80;99.90;;;;;;4969114;28;20535;-75
2022/12/18 12:28:27;;;;;;;21.33;18.17;;;-0.80;99.90;;;;;;4971324;28;20035;-75
2022/12/18 12:31:03;;;;;;;21.85;19.55;;;-0.50;99.90;;;;;;4965976;28;20035;-75
2022/12/18 12:33:51;;;;;;;33.97;21.98;;;-0.70;99.90;;;;;;4970807;28;20475;-75
2022/12/18 12:36:33;;;;;;;23.30;19.40;;;-0.60;99.90;;;;;;4962189;29;20103;-75
2022/12/18 12:39:05;;;;;;;21.90;18.15;;;-0.70;99.90;;;;;;4951871;29;20028;-75
2022/12/18 12:44:29;;;;;;;20.60;18.30;;;-0.50;99.90;;;;;;4964047;29;20036;-75
2022/12/18 12:47:03;;;;;;;21.65;19.38;;;-0.60;99.90;;;;;;4934443;29;20095;-75
2022/12/18 12:49:33;;;;;;;22.63;18.75;;;-0.50;99.90;;;;;;4966386;29;20067;-75
2022/12/18 12:52:14;;;;;;;24.10;18.83;;;-0.50;99.90;;;;;;4966202;29;20031;-75
2022/12/18 12:54:41;;;;;;;22.25;17.45;;;-0.40;99.90;;;;;;4969592;29;20041;-75
2022/12/18 12:57:33;;;;;;;21.15;18.95;;;-0.50;99.90;;;;;;4970377;28;20031;-75
2022/12/18 13:00:08;;;;;;;23.02;18.45;;;-0.40;99.90;;;;;;4953126;29;20042;-75